createdAt,value
2022-08-21T00:00:33.154Z,11.80
2022-08-21T00:05:50.526Z,12.60
2022-08-21T00:10:53.866Z,12.10
2022-08-21T00:15:57.409Z,12.30
2022-08-21T00:21:00.796Z,12.50
2022-08-21T00:26:04.655Z,11.90
2022-08-21T00:31:08.712Z,12.20
2022-08-21T00:36:12.681Z,13.00
2022-08-21T00:41:36.867Z,13.00
2022-08-21T00:46:41.047Z,14.00
2022-08-21T00:51:57.307Z,13.60
2022-08-21T00:57:06.175Z,14.20
2022-08-21T01:02:11.262Z,15.00
2022-08-21T01:07:15.173Z,16.40
2022-08-21T01:12:19.283Z,15.30
2022-08-21T01:17:23.335Z,15.60
2022-08-21T01:22:27.631Z,14.70
2022-08-21T01:27:31.979Z,15.40
2022-08-21T01:32:35.273Z,15.10
2022-08-21T01:37:39.159Z,14.70
2022-08-21T01:42:42.488Z,16.00
2022-08-21T01:47:46.635Z,14.70
2022-08-21T01:52:50.738Z,16.40
2022-08-21T01:57:54.598Z,14.70
2022-08-21T02:02:58.523Z,17.30
2022-08-21T02:08:02.878Z,17.40
2022-08-21T02:13:06.548Z,17.60
2022-08-21T02:18:10.302Z,17.20
2022-08-21T02:23:14.798Z,16.80
2022-08-21T02:28:18.991Z,16.90
2022-08-21T02:33:22.275Z,16.80
2022-08-21T02:38:29.335Z,18.10
2022-08-21T02:43:32.557Z,17.60
2022-08-21T02:48:36.860Z,17.60
2022-08-21T02:53:41.185Z,16.30
2022-08-21T02:58:48.569Z,17.20
2022-08-21T03:03:52.392Z,18.20
2022-08-21T03:08:55.603Z,16.60
2022-08-21T03:13:58.878Z,13.70
2022-08-21T03:19:02.370Z,15.30
2022-08-21T03:24:06.092Z,15.20
2022-08-21T03:29:10.292Z,15.90
2022-08-21T03:34:13.667Z,16.00
2022-08-21T03:39:18.978Z,16.90
2022-08-21T03:44:22.211Z,17.80
2022-08-21T03:49:26.902Z,17.80
2022-08-21T03:54:30.100Z,19.00
2022-08-21T03:59:33.445Z,17.30
2022-08-21T04:04:37.619Z,17.00
2022-08-21T04:09:40.760Z,17.90
2022-08-21T04:14:44.538Z,16.30
2022-08-21T04:19:50.558Z,17.80
2022-08-21T04:24:57.026Z,17.10
2022-08-21T04:30:01.326Z,16.40
2022-08-21T04:35:09.649Z,16.80
2022-08-21T04:40:15.432Z,16.80
2022-08-21T04:45:23.387Z,16.50
2022-08-21T04:50:55.919Z,16.80
2022-08-21T04:56:05.846Z,16.10
2022-08-21T05:01:14.988Z,16.30
2022-08-21T05:06:19.044Z,13.20
2022-08-21T05:11:23.373Z,16.40
2022-08-21T05:16:36.862Z,15.80
2022-08-21T05:21:44.862Z,17.60
2022-08-21T05:26:48.907Z,17.80
2022-08-21T05:31:52.210Z,17.30
2022-08-21T05:36:56.469Z,15.10
2022-08-21T05:41:59.914Z,16.20
2022-08-21T05:47:09.717Z,16.40
2022-08-21T05:52:13.058Z,15.30
2022-08-21T05:57:17.467Z,14.30
2022-08-21T06:02:22.343Z,15.00
2022-08-21T06:07:25.672Z,15.60
2022-08-21T06:12:29.001Z,14.70
2022-08-21T06:17:32.322Z,14.50
2022-08-21T06:22:35.838Z,15.90
2022-08-21T06:27:39.203Z,15.70
2022-08-21T06:32:42.432Z,14.70
2022-08-21T06:37:45.585Z,14.40
2022-08-21T06:42:48.980Z,14.70
2022-08-21T06:47:52.253Z,13.90
2022-08-21T06:53:07.511Z,11.50
2022-08-21T06:58:12.254Z,10.10
2022-08-21T07:03:37.668Z,10.00
2022-08-21T07:08:41.151Z,9.80
2022-08-21T07:13:44.612Z,9.50
2022-08-21T07:18:48.024Z,8.70
2022-08-21T07:23:53.045Z,7.90
2022-08-21T07:28:56.294Z,7.90
2022-08-21T07:33:59.943Z,7.90
2022-08-21T07:39:03.750Z,6.80
2022-08-21T07:44:08.254Z,6.80
2022-08-21T07:49:11.547Z,6.80
2022-08-21T07:54:17.366Z,7.60
2022-08-21T07:59:20.743Z,7.40
2022-08-21T08:04:26.451Z,7.40
2022-08-21T08:09:30.391Z,7.30
2022-08-21T08:14:35.485Z,7.60
2022-08-21T08:19:38.734Z,7.00
2022-08-21T08:24:42.064Z,7.10
2022-08-21T08:29:46.241Z,7.80
2022-08-21T08:34:50.117Z,7.60
2022-08-21T08:39:53.361Z,7.40
2022-08-21T08:45:03.828Z,7.10
2022-08-21T08:50:13.605Z,7.30
2022-08-21T08:55:27.668Z,7.30
2022-08-21T09:00:32.290Z,8.20
2022-08-21T09:06:02.565Z,7.70
2022-08-21T09:11:22.582Z,7.70
2022-08-21T09:16:39.661Z,7.10
2022-08-21T09:22:06.132Z,8.40
2022-08-21T09:27:13.192Z,8.10
2022-08-21T09:32:19.867Z,8.00
2022-08-21T09:37:23.311Z,7.90
2022-08-21T09:42:29.924Z,7.70
2022-08-21T09:47:33.243Z,8.50
2022-08-21T09:52:36.564Z,8.60
2022-08-21T09:57:42.833Z,7.80
2022-08-21T10:02:50.376Z,8.20
2022-08-21T10:07:54.079Z,8.50
2022-08-21T10:13:10.488Z,8.10
2022-08-21T10:18:58.777Z,8.20
2022-08-21T10:24:30.614Z,8.20
2022-08-21T10:29:42.175Z,8.00
2022-08-21T10:34:55.501Z,7.50
2022-08-21T10:40:23.403Z,7.40
2022-08-21T10:45:42.956Z,7.70
2022-08-21T10:50:54.880Z,7.30
2022-08-21T10:56:06.484Z,7.10
2022-08-21T11:01:17.640Z,6.90
2022-08-21T11:06:25.926Z,7.80
2022-08-21T11:11:47.015Z,6.90
2022-08-21T11:17:09.201Z,7.50
2022-08-21T11:22:22.785Z,7.40
2022-08-21T11:27:34.300Z,9.00
2022-08-21T11:33:12.487Z,7.70
2022-08-21T11:38:42.852Z,7.70
2022-08-21T11:44:12.341Z,7.50
2022-08-21T11:49:24.213Z,7.40
2022-08-21T11:54:35.022Z,7.10
2022-08-21T11:59:44.720Z,6.50
2022-08-21T12:04:58.298Z,6.90
2022-08-21T12:10:05.777Z,7.10
2022-08-21T12:15:25.046Z,7.70
2022-08-21T12:20:31.586Z,7.60
2022-08-21T12:25:46.151Z,8.90
2022-08-21T12:30:51.339Z,8.20
2022-08-21T12:36:39.830Z,7.10
2022-08-21T12:42:18.679Z,7.60
2022-08-21T12:47:49.736Z,7.80
2022-08-21T12:53:03.806Z,7.90
2022-08-21T12:58:07.173Z,7.10
2022-08-21T13:03:10.389Z,7.60
2022-08-21T13:08:15.019Z,7.20
2022-08-21T13:13:25.801Z,8.00
2022-08-21T13:18:35.531Z,7.60
2022-08-21T13:23:39.105Z,6.60
2022-08-21T13:28:42.581Z,6.90
2022-08-21T13:33:46.205Z,7.20
2022-08-21T13:38:50.055Z,7.50
2022-08-21T13:44:20.617Z,6.60
2022-08-21T13:49:47.468Z,7.10
2022-08-21T13:54:59.004Z,7.00
2022-08-21T14:00:30.160Z,7.20
2022-08-21T14:05:38.485Z,6.80
2022-08-21T14:10:54.791Z,6.40
2022-08-21T14:16:03.783Z,7.20
2022-08-21T14:21:09.216Z,7.20
2022-08-21T14:26:12.551Z,7.40
2022-08-21T14:31:23.323Z,6.80
2022-08-21T14:36:26.527Z,7.20
2022-08-21T14:41:30.463Z,6.40
2022-08-21T14:46:51.591Z,7.80
2022-08-21T14:52:00.369Z,7.30
2022-08-21T14:57:10.964Z,5.90
2022-08-21T15:02:14.253Z,6.20
2022-08-21T15:07:17.427Z,7.60
2022-08-21T15:12:20.869Z,7.70
2022-08-21T15:17:24.091Z,9.80
2022-08-21T15:22:28.046Z,10.40
2022-08-21T15:27:32.583Z,11.20
2022-08-21T15:32:35.909Z,6.60
2022-08-21T15:37:39.066Z,5.50
2022-08-21T15:42:43.608Z,4.40
2022-08-21T15:47:50.216Z,4.70
2022-08-21T15:52:54.150Z,4.10
2022-08-21T15:58:00.001Z,5.00
2022-08-21T16:03:08.384Z,4.60
2022-08-21T16:08:20.095Z,4.50
2022-08-21T16:13:30.517Z,4.90
2022-08-21T16:18:33.843Z,4.90
2022-08-21T16:23:39.356Z,5.10
2022-08-21T16:28:46.653Z,3.90
2022-08-21T16:33:57.155Z,5.70
2022-08-21T16:39:01.747Z,4.70
2022-08-21T16:44:07.469Z,4.60
2022-08-21T16:49:13.023Z,4.80
2022-08-21T16:54:16.499Z,4.60
2022-08-21T16:59:19.646Z,4.20
2022-08-21T17:04:22.955Z,4.30
2022-08-21T17:09:26.230Z,4.70
2022-08-21T17:14:30.603Z,5.50
2022-08-21T17:19:34.152Z,5.70
2022-08-21T17:24:38.748Z,5.10
2022-08-21T17:29:42.215Z,4.60
2022-08-21T17:34:45.485Z,4.90
2022-08-21T17:39:48.811Z,4.40
2022-08-21T17:44:52.316Z,4.40
2022-08-21T17:49:56.011Z,4.90
2022-08-21T17:54:59.645Z,4.70
2022-08-21T18:00:05.169Z,4.10
2022-08-21T18:05:11.521Z,4.70
2022-08-21T18:10:15.331Z,3.90
2022-08-21T18:15:20.698Z,4.00
2022-08-21T18:20:24.475Z,3.70
2022-08-21T18:25:29.080Z,3.70
2022-08-21T18:30:34.973Z,3.90
2022-08-21T18:35:38.299Z,3.90
2022-08-21T18:40:47.172Z,4.60
2022-08-21T18:45:50.457Z,4.20
2022-08-21T18:50:55.248Z,4.20
2022-08-21T18:56:04.789Z,4.10
2022-08-21T19:01:09.269Z,4.80
2022-08-21T19:06:12.828Z,4.00
2022-08-21T19:11:23.455Z,4.40
2022-08-21T19:16:27.589Z,3.20
2022-08-21T19:21:30.949Z,3.60
2022-08-21T19:26:35.500Z,3.60
2022-08-21T19:31:43.860Z,3.90
2022-08-21T19:36:47.141Z,4.10
2022-08-21T19:41:56.043Z,3.20
2022-08-21T19:47:00.800Z,4.50
2022-08-21T19:52:13.794Z,4.40
2022-08-21T19:57:18.179Z,4.30
2022-08-21T20:02:21.597Z,4.70
2022-08-21T20:07:26.634Z,4.60
2022-08-21T20:12:30.658Z,3.80
2022-08-21T20:17:36.227Z,4.30
2022-08-21T20:22:42.142Z,3.40
2022-08-21T20:27:45.856Z,3.80
2022-08-21T20:32:51.130Z,3.60
2022-08-21T20:43:19.737Z,3.40
2022-08-21T20:48:26.127Z,3.30
2022-08-21T20:53:49.700Z,3.40
2022-08-21T20:59:02.277Z,3.30
2022-08-21T21:04:19.485Z,3.30
2022-08-21T21:09:40.343Z,2.40
2022-08-21T21:14:48.570Z,2.10
2022-08-21T21:19:52.060Z,2.60
2022-08-21T21:24:58.813Z,2.50
2022-08-21T21:30:12.376Z,2.30
2022-08-21T21:36:02.897Z,2.10
2022-08-21T21:41:20.549Z,2.10
2022-08-21T21:46:59.117Z,2.20
2022-08-21T21:52:10.922Z,1.70
2022-08-21T21:57:39.490Z,2.50
2022-08-21T22:03:13.354Z,2.10
2022-08-21T22:08:53.765Z,1.60
2022-08-21T22:14:05.166Z,1.40
2022-08-21T22:19:30.165Z,1.70
2022-08-21T22:24:43.336Z,1.50
2022-08-21T22:29:59.252Z,1.80
2022-08-21T22:35:15.730Z,2.20
2022-08-21T22:40:26.516Z,1.80
2022-08-21T22:45:33.319Z,1.70
2022-08-21T22:50:54.086Z,1.90
2022-08-21T22:56:00.680Z,1.90
2022-08-21T23:01:29.671Z,1.70
2022-08-21T23:06:43.710Z,1.80
2022-08-21T23:11:50.901Z,1.70
2022-08-21T23:16:57.563Z,1.90
2022-08-21T23:22:32.785Z,1.80
2022-08-21T23:27:56.453Z,1.50
2022-08-21T23:33:34.318Z,1.40
2022-08-21T23:38:43.804Z,1.80
2022-08-21T23:44:25.511Z,1.60
2022-08-21T23:49:31.846Z,1.80
2022-08-21T23:55:03.745Z,1.60
